createdAt,value
2022-11-05T00:02:29.725Z,6.86
2022-11-05T00:05:14.548Z,6.92
2022-11-05T00:08:08.046Z,6.95
2022-11-05T00:10:38.146Z,6.99
2022-11-05T00:13:25.632Z,6.97
2022-11-05T00:16:11.462Z,6.96
2022-11-05T00:18:38.228Z,6.89
2022-11-05T00:21:05.896Z,6.90
2022-11-05T00:23:51.144Z,6.89
2022-11-05T00:26:17.688Z,6.87
2022-11-05T00:28:44.768Z,6.78
2022-11-05T00:31:14.134Z,6.79
2022-11-05T00:33:42.953Z,6.78
2022-11-05T00:36:11.922Z,6.74
2022-11-05T00:38:38.594Z,6.75
2022-11-05T00:41:05.511Z,6.62
2022-11-05T00:43:50.529Z,6.60
2022-11-05T00:46:17.407Z,6.58
2022-11-05T00:49:02.531Z,6.57
2022-11-05T00:51:29.244Z,6.59
2022-11-05T00:53:56.055Z,6.59
2022-11-05T00:56:22.805Z,6.62
2022-11-05T00:58:52.176Z,6.61
2022-11-05T01:01:19.035Z,6.61
2022-11-05T01:03:51.305Z,6.63
2022-11-05T01:06:21.126Z,6.67
2022-11-05T01:08:47.736Z,6.81
2022-11-05T01:11:37.290Z,6.82
2022-11-05T01:14:07.820Z,6.83
2022-11-05T01:16:35.224Z,6.87
2022-11-05T01:19:03.271Z,6.86
2022-11-05T01:21:30.042Z,6.83
2022-11-05T01:23:56.963Z,6.86
2022-11-05T01:26:24.337Z,6.84
2022-11-05T01:28:52.285Z,6.84
2022-11-05T01:31:19.766Z,6.84
2022-11-05T01:33:46.476Z,6.84
2022-11-05T01:36:13.296Z,6.85
2022-11-05T01:38:40.010Z,6.80
2022-11-05T01:41:06.817Z,6.83
2022-11-05T01:43:50.336Z,6.79
2022-11-05T01:46:28.831Z,6.68
2022-11-05T01:49:02.878Z,6.75
2022-11-05T01:51:29.800Z,6.74
2022-11-05T01:54:01.614Z,6.68
2022-11-05T01:56:50.496Z,6.62
2022-11-05T01:59:25.026Z,6.64
2022-11-05T02:01:52.344Z,6.62
2022-11-05T02:04:30.995Z,6.63
2022-11-05T02:06:58.135Z,6.56
2022-11-05T02:09:33.982Z,6.58
2022-11-05T02:12:00.874Z,6.56
2022-11-05T02:14:27.423Z,6.58
2022-11-05T02:17:26.352Z,6.60
2022-11-05T02:20:06.396Z,6.59
2022-11-05T02:23:05.936Z,6.57
2022-11-05T02:25:47.695Z,6.56
2022-11-05T02:28:45.520Z,6.56
2022-11-05T02:31:27.909Z,6.56
2022-11-05T02:34:10.860Z,6.57
2022-11-05T02:36:49.123Z,6.59
2022-11-05T02:39:22.662Z,6.56
2022-11-05T02:41:53.521Z,6.52
2022-11-05T02:44:29.136Z,6.62
2022-11-05T02:47:04.791Z,6.60
2022-11-05T02:49:53.175Z,6.63
2022-11-05T02:52:51.684Z,6.64
2022-11-05T02:55:29.521Z,6.75
2022-11-05T02:57:56.213Z,6.73
2022-11-05T03:00:40.477Z,6.79
2022-11-05T03:03:15.064Z,6.76
2022-11-05T03:06:08.586Z,6.75
2022-11-05T03:08:54.690Z,6.71
2022-11-05T03:11:24.057Z,6.67
2022-11-05T03:14:05.996Z,6.63
2022-11-05T03:16:43.119Z,6.62
2022-11-05T03:19:50.475Z,6.63
2022-11-05T03:22:32.091Z,6.61
2022-11-05T03:25:06.203Z,6.57
2022-11-05T03:27:37.172Z,6.58
2022-11-05T03:30:07.825Z,6.59
2022-11-05T03:32:38.841Z,6.63
2022-11-05T03:35:14.469Z,6.65
2022-11-05T03:37:45.365Z,6.67
2022-11-05T03:40:14.273Z,6.60
2022-11-05T03:42:46.598Z,6.76
2022-11-05T03:45:21.780Z,6.72
2022-11-05T03:47:52.511Z,6.78
2022-11-05T03:50:34.777Z,6.81
2022-11-05T03:53:14.376Z,6.79
2022-11-05T03:56:05.445Z,6.85
2022-11-05T03:58:32.319Z,6.89
2022-11-05T04:01:02.180Z,6.93
2022-11-05T04:03:36.171Z,6.95
2022-11-05T04:06:22.935Z,6.92
2022-11-05T04:09:11.342Z,6.94
2022-11-05T04:11:56.899Z,6.90
2022-11-05T04:14:23.629Z,6.90
2022-11-05T04:17:09.632Z,6.88
2022-11-05T04:20:02.178Z,6.90
2022-11-05T04:22:50.197Z,6.92
2022-11-05T04:25:19.548Z,6.93
2022-11-05T04:27:46.990Z,6.92
2022-11-05T04:30:20.878Z,6.90
2022-11-05T04:32:57.448Z,6.92
2022-11-05T04:35:24.799Z,6.91
2022-11-05T04:37:51.841Z,6.96
2022-11-05T04:40:21.286Z,6.98
2022-11-05T04:42:47.921Z,6.90
2022-11-05T04:45:14.532Z,6.94
2022-11-05T04:47:41.684Z,6.89
2022-11-05T04:50:10.566Z,6.86
2022-11-05T04:52:37.660Z,6.80
2022-11-05T04:55:04.547Z,6.89
2022-11-05T04:57:31.132Z,6.90
2022-11-05T04:59:57.851Z,6.90
2022-11-05T05:02:24.507Z,6.89
2022-11-05T05:04:51.099Z,6.90
2022-11-05T05:07:17.834Z,6.87
2022-11-05T05:09:47.675Z,6.88
2022-11-05T05:12:14.333Z,6.87
2022-11-05T05:14:41.075Z,6.86
2022-11-05T05:17:07.771Z,6.86
2022-11-05T05:19:57.012Z,6.82
2022-11-05T05:22:24.136Z,6.85
2022-11-05T05:24:52.962Z,6.82
2022-11-05T05:27:23.985Z,6.88
2022-11-05T05:29:50.681Z,6.90
2022-11-05T05:32:17.340Z,6.92
2022-11-05T05:34:44.159Z,6.88
2022-11-05T05:37:10.922Z,6.92
2022-11-05T05:39:37.764Z,6.91
2022-11-05T05:42:04.612Z,6.98
2022-11-05T05:44:31.173Z,7.02
2022-11-05T05:46:57.821Z,6.99
2022-11-05T05:49:24.624Z,6.98
2022-11-05T05:51:51.379Z,7.04
2022-11-05T05:54:19.376Z,7.06
2022-11-05T05:56:46.383Z,7.08
2022-11-05T05:59:13.236Z,7.04
2022-11-05T06:01:40.571Z,7.04
2022-11-05T06:04:07.453Z,7.02
2022-11-05T06:06:34.057Z,7.04
2022-11-05T06:09:00.917Z,7.07
2022-11-05T06:11:27.892Z,7.09
2022-11-05T06:13:54.431Z,7.14
2022-11-05T06:16:23.864Z,7.13
2022-11-05T06:18:50.505Z,7.18
2022-11-05T06:21:20.626Z,7.22
2022-11-05T06:23:49.139Z,7.18
2022-11-05T06:26:17.941Z,7.27
2022-11-05T06:28:45.019Z,7.21
2022-11-05T06:31:13.664Z,7.21
2022-11-05T06:33:40.353Z,7.23
2022-11-05T06:36:08.129Z,7.25
2022-11-05T06:38:36.846Z,7.36
2022-11-05T06:41:08.997Z,7.36
2022-11-05T06:43:37.385Z,7.34
2022-11-05T06:46:04.668Z,7.28
2022-11-05T06:48:34.887Z,7.31
2022-11-05T06:51:05.403Z,7.31
2022-11-05T06:53:32.130Z,7.31
2022-11-05T06:56:03.714Z,7.32
2022-11-05T06:58:31.094Z,7.31
2022-11-05T07:01:08.838Z,7.27
2022-11-05T07:03:36.767Z,7.31
2022-11-05T07:06:04.425Z,7.26
2022-11-05T07:08:33.032Z,7.30
2022-11-05T07:11:00.114Z,7.30
2022-11-05T07:13:27.418Z,7.28
2022-11-05T07:15:54.317Z,7.21
2022-11-05T07:21:20.812Z,7.30
2022-11-05T07:23:47.817Z,7.31
2022-11-05T07:26:14.857Z,7.36
2022-11-05T07:28:42.774Z,7.42
2022-11-05T07:31:09.747Z,7.30
2022-11-05T07:33:39.216Z,7.29
2022-11-05T07:36:06.292Z,7.41
2022-11-05T07:38:33.235Z,7.46
2022-11-05T07:41:00.620Z,7.40
2022-11-05T07:43:27.862Z,7.38
2022-11-05T07:45:57.835Z,7.52
2022-11-05T07:48:29.365Z,7.57
2022-11-05T07:51:02.657Z,7.55
2022-11-05T07:53:29.282Z,7.48
2022-11-05T07:55:57.327Z,7.55
2022-11-05T07:58:24.273Z,7.57
2022-11-05T08:00:51.244Z,7.52
2022-11-05T08:03:21.344Z,7.53
2022-11-05T08:05:50.852Z,7.52
2022-11-05T08:08:21.814Z,7.50
2022-11-05T08:10:51.542Z,7.51
2022-11-05T08:13:19.282Z,7.60
2022-11-05T08:15:46.098Z,7.66
2022-11-05T08:18:14.997Z,7.73
2022-11-05T08:20:43.655Z,7.82
2022-11-05T08:23:11.388Z,7.95
2022-11-05T08:25:39.912Z,7.93
2022-11-05T08:28:13.072Z,8.26
2022-11-05T08:30:39.878Z,8.31
2022-11-05T08:33:09.476Z,8.44
2022-11-05T08:35:37.582Z,8.49
2022-11-05T08:38:06.939Z,8.54
2022-11-05T08:40:35.979Z,8.50
2022-11-05T08:43:05.401Z,8.46
2022-11-05T08:45:33.262Z,8.45
2022-11-05T08:48:04.199Z,8.42
2022-11-05T08:50:31.230Z,8.38
2022-11-05T08:52:57.722Z,8.32
2022-11-05T08:55:25.012Z,8.28
2022-11-05T08:57:58.748Z,8.33
2022-11-05T09:00:26.958Z,8.38
2022-11-05T09:02:58.996Z,8.46
2022-11-05T09:05:25.460Z,8.52
2022-11-05T09:07:56.478Z,8.66
2022-11-05T09:10:26.686Z,8.86
2022-11-05T09:12:53.225Z,8.99
2022-11-05T09:15:23.448Z,9.16
2022-11-05T09:17:53.046Z,9.34
2022-11-05T09:20:22.171Z,9.44
2022-11-05T09:22:49.182Z,9.53
2022-11-05T09:25:15.971Z,9.59
2022-11-05T09:27:42.832Z,9.66
2022-11-05T09:30:11.224Z,9.72
2022-11-05T09:32:38.133Z,9.74
2022-11-05T09:35:05.620Z,9.65
2022-11-05T09:37:32.452Z,9.74
2022-11-05T09:39:58.986Z,9.75
2022-11-05T09:42:42.418Z,9.77
2022-11-05T09:45:15.597Z,9.81
2022-11-05T09:47:56.221Z,9.83
2022-11-05T09:50:30.989Z,9.88
2022-11-05T09:52:58.143Z,9.93
2022-11-05T09:55:37.060Z,9.89
2022-11-05T09:58:20.506Z,9.83
2022-11-05T10:00:52.315Z,9.91
2022-11-05T10:03:24.082Z,9.96
2022-11-05T10:05:52.488Z,9.96
2022-11-05T10:08:34.855Z,10.04
2022-11-05T10:11:14.065Z,10.06
2022-11-05T10:14:15.346Z,10.19
2022-11-05T10:16:45.801Z,10.34
2022-11-05T10:19:25.474Z,10.30
2022-11-05T10:22:06.477Z,10.31
2022-11-05T10:24:33.685Z,10.28
2022-11-05T10:27:00.360Z,10.25
2022-11-05T10:29:32.991Z,10.25
2022-11-05T10:32:01.593Z,10.22
2022-11-05T10:34:33.340Z,10.30
2022-11-05T10:37:00.299Z,10.29
2022-11-05T10:39:29.733Z,10.33
2022-11-05T10:42:30.364Z,10.39
2022-11-05T10:45:09.080Z,10.41
2022-11-05T10:47:46.074Z,10.42
2022-11-05T10:50:34.009Z,10.43
2022-11-05T10:53:12.954Z,10.42
2022-11-05T10:55:54.104Z,10.46
2022-11-05T10:58:25.573Z,10.40
2022-11-05T11:00:52.068Z,10.37
2022-11-05T11:03:45.144Z,10.31
2022-11-05T11:06:29.617Z,10.27
2022-11-05T11:08:58.097Z,10.21
2022-11-05T11:11:29.517Z,10.19
2022-11-05T11:14:02.275Z,10.24
2022-11-05T11:16:35.055Z,10.25
2022-11-05T11:19:03.063Z,10.29
2022-11-05T11:21:31.845Z,10.33
2022-11-05T11:24:02.969Z,10.37
2022-11-05T11:26:40.814Z,10.43
2022-11-05T11:29:26.515Z,10.52
2022-11-05T11:31:58.058Z,10.57
2022-11-05T11:34:33.862Z,10.64
2022-11-05T11:37:08.698Z,10.68
2022-11-05T11:39:36.691Z,10.69
2022-11-05T11:42:10.013Z,10.69
2022-11-05T11:44:44.537Z,10.65
2022-11-05T11:47:15.582Z,10.60
2022-11-05T11:49:41.958Z,10.60
2022-11-05T11:52:15.453Z,10.56
2022-11-05T11:54:42.771Z,10.55
2022-11-05T11:57:27.314Z,10.55
2022-11-05T12:00:08.780Z,10.56
2022-11-05T12:02:51.084Z,10.61
2022-11-05T12:05:48.079Z,10.66
2022-11-05T12:08:45.355Z,10.68
2022-11-05T12:11:20.545Z,10.68
2022-11-05T12:14:04.121Z,10.70
2022-11-05T12:16:45.912Z,10.76
2022-11-05T12:19:22.140Z,10.80
2022-11-05T12:21:53.340Z,10.80
2022-11-05T12:24:57.668Z,10.79
2022-11-05T12:27:29.773Z,10.84
2022-11-05T12:30:10.341Z,10.86
2022-11-05T12:33:09.914Z,10.94
2022-11-05T12:36:08.778Z,10.97
2022-11-05T12:39:06.356Z,11.05
2022-11-05T12:41:47.021Z,11.08
2022-11-05T12:44:46.945Z,11.12
2022-11-05T12:47:25.502Z,11.16
2022-11-05T12:50:01.189Z,11.20
2022-11-05T12:52:42.878Z,11.18
2022-11-05T12:55:15.070Z,11.21
2022-11-05T12:57:45.483Z,11.20
2022-11-05T13:00:22.675Z,11.24
2022-11-05T13:03:14.304Z,11.16
2022-11-05T13:05:51.082Z,11.08
2022-11-05T13:08:29.374Z,11.08
2022-11-05T13:11:01.057Z,11.07
2022-11-05T13:13:42.716Z,11.08
2022-11-05T13:16:27.245Z,11.09
2022-11-05T13:18:58.560Z,11.11
2022-11-05T13:21:29.060Z,11.09
2022-11-05T13:24:11.720Z,11.12
2022-11-05T13:26:59.179Z,11.07
2022-11-05T13:29:34.444Z,11.06
2022-11-05T13:32:22.583Z,11.06
2022-11-05T13:34:49.268Z,11.04
2022-11-05T13:37:40.990Z,10.95
2022-11-05T13:40:11.894Z,10.94
2022-11-05T13:42:51.302Z,10.92
2022-11-05T13:45:20.889Z,10.92
2022-11-05T13:48:23.506Z,10.89
2022-11-05T13:51:14.750Z,10.92
2022-11-05T13:53:44.255Z,10.86
2022-11-05T13:56:20.255Z,10.76
2022-11-05T13:59:05.654Z,10.81
2022-11-05T14:01:41.460Z,10.79
2022-11-05T14:04:19.461Z,10.76
2022-11-05T14:06:46.738Z,10.81
2022-11-05T14:09:20.172Z,10.80
2022-11-05T14:11:53.761Z,10.77
2022-11-05T14:14:24.556Z,10.80
2022-11-05T14:17:11.054Z,10.77
2022-11-05T14:20:05.232Z,10.73
2022-11-05T14:22:31.869Z,10.70
2022-11-05T14:25:01.161Z,10.67
2022-11-05T14:27:36.626Z,10.64
2022-11-05T14:30:41.076Z,10.61
2022-11-05T14:33:32.063Z,10.59
2022-11-05T14:36:20.336Z,10.57
2022-11-05T14:39:01.501Z,10.57
2022-11-05T14:41:30.732Z,10.56
2022-11-05T14:44:05.646Z,10.57
2022-11-05T14:46:43.372Z,10.52
2022-11-05T14:49:21.005Z,10.56
2022-11-05T14:51:54.363Z,10.55
2022-11-05T14:54:46.829Z,10.55
2022-11-05T14:57:34.828Z,10.54
2022-11-05T15:00:02.414Z,10.53
2022-11-05T15:02:38.176Z,10.52
2022-11-05T15:05:55.880Z,10.53
2022-11-05T15:08:35.119Z,10.55
2022-11-05T15:11:13.696Z,10.52
2022-11-05T15:13:52.308Z,10.49
2022-11-05T15:16:50.395Z,10.54
2022-11-05T15:19:37.408Z,10.47
2022-11-05T15:22:12.385Z,10.49
2022-11-05T15:24:42.646Z,10.46
2022-11-05T15:27:16.747Z,10.44
2022-11-05T15:29:43.255Z,10.46
2022-11-05T15:32:17.683Z,10.42
2022-11-05T15:34:55.686Z,10.43
2022-11-05T15:37:25.818Z,10.41
2022-11-05T15:39:54.676Z,10.39
2022-11-05T15:42:26.166Z,10.39
2022-11-05T15:44:56.848Z,10.37
2022-11-05T15:47:27.702Z,10.38
2022-11-05T15:50:03.720Z,10.34
2022-11-05T15:52:42.340Z,10.33
2022-11-05T15:55:11.946Z,10.28
2022-11-05T15:57:47.858Z,10.20
2022-11-05T16:00:25.954Z,10.16
2022-11-05T16:03:04.421Z,10.10
2022-11-05T16:05:34.403Z,10.07
2022-11-05T16:08:02.396Z,10.05
2022-11-05T16:10:31.465Z,10.03
2022-11-05T16:12:57.935Z,9.99
2022-11-05T16:15:29.239Z,9.96
2022-11-05T16:17:58.154Z,9.92
2022-11-05T16:20:35.316Z,9.91
2022-11-05T16:23:04.818Z,9.87
2022-11-05T16:25:40.277Z,9.84
2022-11-05T16:28:25.046Z,9.81
2022-11-05T16:31:03.898Z,9.85
2022-11-05T16:33:40.528Z,9.83
2022-11-05T16:36:08.484Z,9.82
2022-11-05T16:38:35.135Z,9.82
2022-11-05T16:41:01.675Z,9.79
2022-11-05T16:43:28.265Z,9.77
2022-11-05T16:45:58.241Z,9.77
2022-11-05T16:48:25.583Z,9.72
2022-11-05T16:50:52.276Z,9.75
2022-11-05T16:53:19.114Z,9.74
2022-11-05T16:55:46.340Z,9.74
2022-11-05T16:58:22.834Z,9.72
2022-11-05T17:00:51.149Z,9.73
2022-11-05T17:03:21.091Z,9.74
2022-11-05T17:05:47.793Z,9.76
2022-11-05T17:08:14.657Z,9.73
2022-11-05T17:10:41.330Z,9.78
2022-11-05T17:13:10.085Z,9.75
2022-11-05T17:15:36.629Z,9.84
2022-11-05T17:18:04.797Z,9.97
2022-11-05T17:20:41.555Z,10.00
2022-11-05T17:23:11.017Z,10.03
2022-11-05T17:25:39.205Z,10.00
2022-11-05T17:28:07.006Z,10.02
2022-11-05T17:30:33.611Z,10.01
2022-11-05T17:33:00.434Z,10.04
2022-11-05T17:35:27.408Z,10.05
2022-11-05T17:37:54.050Z,10.05
2022-11-05T17:40:22.766Z,10.11
2022-11-05T17:42:51.250Z,10.05
2022-11-05T17:45:18.117Z,10.02
2022-11-05T17:47:44.779Z,10.07
2022-11-05T17:50:15.542Z,10.01
2022-11-05T17:52:42.552Z,10.02
2022-11-05T17:55:16.597Z,10.00
2022-11-05T17:57:45.163Z,10.07
2022-11-05T18:00:13.158Z,10.12
2022-11-05T18:02:39.842Z,10.04
2022-11-05T18:05:06.868Z,10.01
2022-11-05T18:07:33.415Z,9.96
2022-11-05T18:09:59.835Z,9.95
2022-11-05T18:12:26.498Z,9.89
2022-11-05T18:14:52.916Z,9.87
2022-11-05T18:17:22.354Z,9.94
2022-11-05T18:19:49.126Z,9.92
2022-11-05T18:22:18.263Z,9.81
2022-11-05T18:24:45.452Z,9.86
2022-11-05T18:27:12.267Z,9.95
2022-11-05T18:29:39.031Z,9.95
2022-11-05T18:32:06.292Z,9.93
2022-11-05T18:34:32.892Z,9.89
2022-11-05T18:36:59.727Z,9.89
2022-11-05T18:39:26.263Z,9.78
2022-11-05T18:41:52.795Z,9.81
2022-11-05T18:44:22.715Z,9.85
2022-11-05T18:46:58.728Z,9.79
2022-11-05T18:49:26.410Z,9.85
2022-11-05T18:51:52.970Z,9.81
2022-11-05T18:54:22.514Z,9.84
2022-11-05T18:56:51.376Z,9.91
2022-11-05T19:02:06.260Z,9.93
2022-11-05T19:04:35.439Z,9.92
2022-11-05T19:07:05.221Z,9.90
2022-11-05T19:09:37.383Z,9.92
2022-11-05T19:12:05.162Z,9.90
2022-11-05T19:14:32.113Z,9.91
2022-11-05T19:17:00.244Z,9.89
2022-11-05T19:19:27.616Z,9.94
2022-11-05T19:21:54.285Z,9.85
2022-11-05T19:24:21.089Z,9.91
2022-11-05T19:26:48.031Z,10.00
2022-11-05T19:29:15.306Z,9.95
2022-11-05T19:31:42.145Z,9.96
2022-11-05T19:34:09.087Z,10.01
2022-11-05T19:36:35.639Z,10.04
2022-11-05T19:39:06.561Z,10.13
2022-11-05T19:41:33.468Z,10.06
2022-11-05T19:44:01.885Z,10.09
2022-11-05T19:46:30.479Z,9.89
2022-11-05T19:48:57.537Z,10.08
2022-11-05T19:51:26.502Z,10.04
2022-11-05T19:53:55.427Z,10.06
2022-11-05T19:56:28.192Z,10.09
2022-11-05T19:58:54.813Z,10.12
2022-11-05T20:01:23.327Z,10.15
2022-11-05T20:03:55.043Z,10.15
2022-11-05T20:06:30.842Z,10.17
2022-11-05T20:09:20.524Z,10.12
2022-11-05T20:11:49.380Z,10.16
2022-11-05T20:14:16.069Z,10.16
2022-11-05T20:16:43.758Z,10.14
2022-11-05T20:19:15.355Z,10.18
2022-11-05T20:21:42.117Z,10.15
2022-11-05T20:24:10.846Z,10.14
2022-11-05T20:26:37.699Z,10.16
2022-11-05T20:29:04.461Z,10.27
2022-11-05T20:31:31.182Z,10.15
2022-11-05T20:33:57.837Z,10.19
2022-11-05T20:36:25.757Z,10.17
2022-11-05T20:38:55.531Z,10.19
2022-11-05T20:41:22.798Z,10.17
2022-11-05T20:43:50.801Z,10.11
2022-11-05T20:46:19.844Z,10.17
2022-11-05T20:48:46.765Z,10.13
2022-11-05T20:51:20.425Z,10.13
2022-11-05T20:53:47.851Z,10.14
2022-11-05T20:56:24.428Z,10.16
2022-11-05T20:58:51.669Z,10.15
2022-11-05T21:01:20.552Z,10.15
2022-11-05T21:03:47.912Z,10.18
2022-11-05T21:06:14.822Z,10.06
2022-11-05T21:08:41.902Z,10.08
2022-11-05T21:11:09.163Z,10.11
2022-11-05T21:13:36.510Z,10.05
2022-11-05T21:16:05.970Z,10.10
2022-11-05T21:18:34.540Z,10.09
2022-11-05T21:21:08.686Z,10.11
2022-11-05T21:23:35.725Z,10.07
2022-11-05T21:26:06.622Z,10.07
2022-11-05T21:28:33.782Z,10.11
2022-11-05T21:31:02.024Z,10.08
2022-11-05T21:33:28.396Z,10.09
2022-11-05T21:35:55.021Z,10.09
2022-11-05T21:38:21.894Z,10.09
2022-11-05T21:40:49.290Z,10.05
2022-11-05T21:43:16.748Z,10.09
2022-11-05T21:45:45.071Z,10.04
2022-11-05T21:48:12.919Z,10.09
2022-11-05T21:50:58.205Z,10.05
2022-11-05T21:53:44.093Z,9.98
2022-11-05T21:56:37.441Z,9.99
2022-11-05T21:59:23.211Z,10.05
2022-11-05T22:02:01.386Z,9.96
2022-11-05T22:04:38.049Z,9.98
2022-11-05T22:07:06.336Z,9.94
2022-11-05T22:09:35.723Z,9.90
2022-11-05T22:12:03.523Z,9.92
2022-11-05T22:14:30.536Z,9.93
2022-11-05T22:16:57.995Z,9.99
2022-11-05T22:19:24.886Z,10.00
2022-11-05T22:21:52.379Z,10.03
2022-11-05T22:24:20.047Z,9.97
2022-11-05T22:26:47.605Z,9.99
2022-11-05T22:29:15.949Z,9.93
2022-11-05T22:31:43.073Z,9.92
2022-11-05T22:34:11.584Z,9.90
2022-11-05T22:36:41.971Z,9.94
2022-11-05T22:39:10.832Z,9.93
2022-11-05T22:41:37.582Z,9.94
2022-11-05T22:44:04.470Z,9.95
2022-11-05T22:46:33.897Z,9.96
2022-11-05T22:49:00.612Z,9.96
2022-11-05T22:51:31.224Z,10.00
2022-11-05T22:53:58.946Z,9.91
2022-11-05T22:56:28.918Z,9.97
2022-11-05T22:58:59.762Z,9.95
2022-11-05T23:01:26.969Z,9.89
2022-11-05T23:03:55.991Z,9.93
2022-11-05T23:06:50.596Z,9.85
2022-11-05T23:09:49.277Z,9.87
2022-11-05T23:12:32.805Z,9.94
2022-11-05T23:15:01.652Z,9.95
2022-11-05T23:17:48.054Z,9.98
2022-11-05T23:20:36.335Z,9.96
2022-11-05T23:23:21.591Z,9.94
2022-11-05T23:25:50.764Z,9.98
2022-11-05T23:28:21.677Z,9.88
2022-11-05T23:31:06.950Z,9.95
2022-11-05T23:33:34.956Z,9.93
2022-11-05T23:36:20.446Z,9.98
2022-11-05T23:38:47.355Z,9.95
2022-11-05T23:41:32.901Z,9.89
2022-11-05T23:44:18.175Z,9.95
2022-11-05T23:47:05.819Z,9.92
2022-11-05T23:49:32.650Z,9.95
2022-11-05T23:51:59.733Z,9.89
2022-11-05T23:54:26.416Z,9.80
2022-11-05T23:56:53.199Z,9.75
2022-11-05T23:59:22.936Z,9.73
